createdAt,value
2016-04-23T00:00:41.372Z,0
2016-04-23T00:01:41.375Z,0
2016-04-23T00:02:41.363Z,0
2016-04-23T00:03:41.334Z,0
2016-04-23T00:04:41.321Z,0
2016-04-23T00:05:41.308Z,0
2016-04-23T00:06:41.296Z,0
2016-04-23T00:07:41.266Z,0
2016-04-23T00:08:41.269Z,0
2016-04-23T00:09:41.256Z,0
2016-04-23T00:10:41.229Z,0
2016-04-23T00:11:41.215Z,0
2016-04-23T00:12:41.405Z,0
2016-04-23T00:13:41.189Z,0
2016-04-23T00:14:41.192Z,0
2016-04-23T00:15:41.163Z,0
2016-04-23T00:16:41.134Z,0
2016-04-23T00:17:41.153Z,0
2016-04-23T00:18:41.109Z,0
2016-04-23T00:19:41.096Z,0
2016-04-23T00:20:41.083Z,0
2016-04-23T00:21:41.054Z,0
2016-04-23T00:22:41.042Z,0
2016-04-23T00:23:41.044Z,0
2016-04-23T00:24:41.016Z,0
2016-04-23T00:25:41.003Z,0
2016-04-23T00:26:41.005Z,0
2016-04-23T00:27:40.992Z,0
2016-04-23T00:28:40.964Z,0
2016-04-23T00:29:40.950Z,0
2016-04-23T00:30:40.938Z,0
2016-04-23T00:31:40.910Z,0
2016-04-23T00:32:40.881Z,0
2016-04-23T00:33:40.915Z,0
2016-04-23T00:34:40.871Z,0
2016-04-23T00:35:40.842Z,0
2016-04-23T00:36:40.829Z,0
2016-04-23T00:37:40.816Z,0
2016-04-23T00:38:40.804Z,0
2016-04-23T00:39:40.806Z,0
2016-04-23T00:40:40.777Z,0
2016-04-23T00:41:40.765Z,0
2016-04-23T00:42:40.735Z,0
2016-04-23T00:43:40.723Z,0
2016-04-23T00:44:40.710Z,0
2016-04-23T00:45:40.713Z,0
2016-04-23T00:46:40.684Z,0
2016-04-23T00:47:40.656Z,0
2016-04-23T00:48:40.659Z,0
2016-04-23T00:49:40.645Z,0
2016-04-23T00:50:40.617Z,0
2016-04-23T00:51:40.603Z,0
2016-04-23T00:52:40.607Z,0
2016-04-23T00:53:40.594Z,0
2016-04-23T00:54:40.581Z,0
2016-04-23T00:55:40.552Z,0
2016-04-23T00:56:40.539Z,0
2016-04-23T00:57:40.526Z,0
2016-04-23T00:58:40.497Z,0
2016-04-23T00:59:40.485Z,0
2016-04-23T01:00:40.472Z,0
2016-04-23T01:01:40.459Z,0
2016-04-23T01:02:40.430Z,0
2016-04-23T01:03:40.432Z,0
2016-04-23T01:04:40.404Z,0
2016-04-23T01:05:40.408Z,0
2016-04-23T01:06:40.379Z,0
2016-04-23T01:07:40.365Z,0
2016-04-23T01:08:40.369Z,0
2016-04-23T01:09:40.355Z,0
2016-04-23T01:10:40.311Z,0
2016-04-23T01:11:40.298Z,0
2016-04-23T01:12:40.286Z,0
2016-04-23T01:13:40.273Z,0
2016-04-23T01:14:40.275Z,0
2016-04-23T01:15:40.246Z,0
2016-04-23T01:16:40.076Z,0
2016-04-23T01:17:39.455Z,0
2016-04-23T01:18:40.192Z,0
2016-04-23T01:19:40.195Z,0
2016-04-23T01:20:40.167Z,0
2016-04-23T01:21:40.154Z,0
2016-04-23T01:22:40.140Z,0
2016-04-23T01:23:40.127Z,0
2016-04-23T01:24:40.115Z,0
2016-04-23T01:25:40.086Z,0
2016-04-23T01:26:40.058Z,0
2016-04-23T01:27:40.075Z,0
2016-04-23T01:28:40.031Z,0
2016-04-23T01:29:40.019Z,0
2016-04-23T01:30:40.021Z,0
2016-04-23T01:31:39.992Z,0
2016-04-23T01:32:40.011Z,0
2016-04-23T01:33:39.983Z,0
2016-04-23T01:34:39.938Z,0
2016-04-23T01:35:39.941Z,0
2016-04-23T01:36:40.131Z,0
2016-04-23T01:37:39.899Z,0
2016-04-23T01:38:39.886Z,0
2016-04-23T01:39:39.874Z,0
2016-04-23T01:40:39.860Z,0
2016-04-23T01:41:39.848Z,0
2016-04-23T01:42:39.835Z,0
2016-04-23T01:43:39.806Z,0
2016-04-23T01:44:39.793Z,0
2016-04-23T01:45:39.780Z,0
2016-04-23T01:46:39.768Z,0
2016-04-23T01:47:39.801Z,0
2016-04-23T01:48:39.742Z,0
2016-04-23T01:49:39.729Z,0
2016-04-23T01:50:39.715Z,0
2016-04-23T01:51:39.687Z,0
2016-04-23T01:52:39.673Z,0
2016-04-23T01:53:39.662Z,0
2016-04-23T01:54:39.648Z,0
2016-04-23T01:55:39.635Z,0
2016-04-23T01:56:39.623Z,0
2016-04-23T01:57:39.609Z,0
2016-04-23T01:58:39.597Z,0
2016-04-23T01:59:39.567Z,0
2016-04-23T02:00:39.556Z,0
2016-04-23T02:01:39.527Z,0
2016-04-23T02:02:39.232Z,0
2016-04-23T02:03:39.532Z,0
2016-04-23T02:04:39.534Z,0
2016-04-23T02:05:39.475Z,0
2016-04-23T02:06:39.493Z,0
2016-04-23T02:07:39.449Z,0
2016-04-23T02:08:39.436Z,0
2016-04-23T02:09:39.424Z,0
2016-04-23T02:10:39.426Z,0
2016-04-23T02:11:39.396Z,0
2016-04-23T02:12:40.182Z,0
2016-04-23T02:13:39.355Z,0
2016-04-23T02:14:39.358Z,0
2016-04-23T02:15:39.314Z,0
2016-04-23T02:16:39.301Z,0
2016-04-23T02:17:39.148Z,0
2016-04-23T02:18:39.290Z,0
2016-04-23T02:19:39.246Z,0
2016-04-23T02:20:39.265Z,0
2016-04-23T02:21:39.237Z,0
2016-04-23T02:22:39.233Z,0
2016-04-23T02:23:39.189Z,0
2016-04-23T02:24:39.176Z,0
2016-04-23T02:25:39.163Z,0
2016-04-23T02:26:39.150Z,0
2016-04-23T02:27:39.137Z,0
2016-04-23T02:28:39.125Z,0
2016-04-23T02:29:39.096Z,0
2016-04-23T02:30:39.099Z,0
2016-04-23T02:31:39.070Z,0
2016-04-23T02:32:39.057Z,0
2016-04-23T02:33:39.044Z,0
2016-04-23T02:34:39.031Z,0
2016-04-23T02:35:39.002Z,0
2016-04-23T02:36:39.021Z,0
2016-04-23T02:37:38.961Z,0
2016-04-23T02:38:38.963Z,0
2016-04-23T02:39:38.951Z,0
2016-04-23T02:40:38.954Z,0
2016-04-23T02:41:38.909Z,0
2016-04-23T02:42:38.896Z,0
2016-04-23T02:43:38.884Z,0
2016-04-23T02:44:38.871Z,0
2016-04-23T02:45:38.857Z,0
2016-04-23T02:46:38.845Z,0
2016-04-23T02:47:38.817Z,0
2016-04-23T02:48:38.803Z,0
2016-04-23T02:49:38.775Z,0
2016-04-23T02:50:38.777Z,0
2016-04-23T02:51:38.765Z,0
2016-04-23T02:52:38.767Z,0
2016-04-23T02:53:38.738Z,0
2016-04-23T02:54:38.726Z,0
2016-04-23T02:55:38.697Z,0
2016-04-23T02:56:38.684Z,0
2016-04-23T02:57:38.671Z,0
2016-04-23T02:58:38.643Z,0
2016-04-23T02:59:38.630Z,0
2016-04-23T03:00:38.616Z,0
2016-04-23T03:01:38.588Z,0
2016-04-23T03:02:38.591Z,0
2016-04-23T03:03:38.563Z,0
2016-04-23T03:04:38.549Z,0
2016-04-23T03:05:38.536Z,0
2016-04-23T03:06:38.571Z,0
2016-04-23T03:07:38.510Z,0
2016-04-23T03:08:38.576Z,0
2016-04-23T03:09:38.485Z,0
2016-04-23T03:10:38.472Z,0
2016-04-23T03:11:38.443Z,0
2016-04-23T03:12:38.445Z,0
2016-04-23T03:13:38.418Z,0
2016-04-23T03:14:38.389Z,0
2016-04-23T03:15:38.375Z,0
2016-04-23T03:16:38.379Z,0
2016-04-23T03:17:38.381Z,0
2016-04-23T03:18:38.337Z,0
2016-04-23T03:19:38.309Z,0
2016-04-23T03:20:38.327Z,0
2016-04-23T03:21:38.298Z,0
2016-04-23T03:22:38.270Z,0
2016-04-23T03:23:38.272Z,0
2016-04-23T03:24:38.259Z,0
2016-04-23T03:25:38.230Z,0
2016-04-23T03:26:38.217Z,0
2016-04-23T03:27:38.221Z,0
2016-04-23T03:28:37.442Z,0
2016-04-23T03:29:38.164Z,0
2016-04-23T03:30:38.135Z,0
2016-04-23T03:31:38.138Z,0
2016-04-23T03:32:38.172Z,0
2016-04-23T03:33:38.096Z,0
2016-04-23T03:34:38.099Z,0
2016-04-23T03:35:38.071Z,0
2016-04-23T03:36:38.074Z,0
2016-04-23T03:37:38.044Z,0
2016-04-23T03:38:38.032Z,0
2016-04-23T03:39:38.003Z,0
2016-04-23T03:40:37.990Z,0
2016-04-23T03:41:37.976Z,0
2016-04-23T03:42:37.979Z,0
2016-04-23T03:43:37.952Z,0
2016-04-23T03:44:37.923Z,0
2016-04-23T03:45:37.910Z,0
2016-04-23T03:46:37.896Z,0
2016-04-23T03:47:37.884Z,0
2016-04-23T03:48:37.856Z,0
2016-04-23T03:49:37.858Z,4
2016-04-23T03:50:37.829Z,4
2016-04-23T03:51:37.817Z,0
2016-04-23T03:52:37.851Z,4
2016-04-23T03:53:37.806Z,4
2016-04-23T03:54:37.778Z,4
2016-04-23T03:55:37.752Z,8
2016-04-23T03:56:37.740Z,8
2016-04-23T03:57:37.743Z,8
2016-04-23T03:58:37.714Z,12
2016-04-23T03:59:37.702Z,12
2016-04-23T04:00:37.687Z,12
2016-04-23T04:01:37.660Z,16
2016-04-23T04:02:37.647Z,20
2016-04-23T04:03:37.462Z,20
2016-04-23T04:04:37.605Z,24
2016-04-23T04:05:37.592Z,32
2016-04-23T04:06:37.579Z,36
2016-04-23T04:07:37.598Z,40
2016-04-23T04:08:37.538Z,44
2016-04-23T04:09:37.525Z,44
2016-04-23T04:10:37.511Z,52
2016-04-23T04:11:37.500Z,56
2016-04-23T04:12:37.486Z,64
2016-04-23T04:13:37.317Z,64
2016-04-23T04:14:37.445Z,72
2016-04-23T04:15:37.431Z,76
2016-04-23T04:16:37.419Z,84
2016-04-23T04:17:37.406Z,88
2016-04-23T04:18:37.393Z,100
2016-04-23T04:19:37.380Z,108
2016-04-23T04:20:37.351Z,116
2016-04-23T04:21:37.338Z,128
2016-04-23T04:22:37.341Z,144
2016-04-23T04:23:37.313Z,156
2016-04-23T04:24:37.300Z,168
2016-04-23T04:25:37.271Z,176
2016-04-23T04:26:37.258Z,184
2016-04-23T04:27:37.245Z,188
2016-04-23T04:28:37.232Z,184
2016-04-23T04:29:37.423Z,184
2016-04-23T04:30:37.222Z,184
2016-04-23T04:31:37.179Z,184
2016-04-23T04:32:37.165Z,188
2016-04-23T04:33:37.152Z,192
2016-04-23T04:34:37.139Z,196
2016-04-23T04:35:37.126Z,204
2016-04-23T04:36:37.097Z,216
2016-04-23T04:37:37.084Z,232
2016-04-23T04:38:37.056Z,244
2016-04-23T04:39:37.043Z,260
2016-04-23T04:40:37.046Z,284
2016-04-23T04:41:36.876Z,308
2016-04-23T04:42:37.004Z,344
2016-04-23T04:43:36.991Z,384
2016-04-23T04:44:36.978Z,420
2016-04-23T04:45:36.966Z,460
2016-04-23T04:46:36.953Z,500
2016-04-23T04:47:36.925Z,540
2016-04-23T04:48:36.927Z,588
2016-04-23T04:49:36.883Z,632
2016-04-23T04:50:36.885Z,672
2016-04-23T04:51:36.857Z,716
2016-04-23T04:52:36.859Z,776
2016-04-23T04:53:36.830Z,840
2016-04-23T04:54:36.818Z,908
2016-04-23T04:55:36.789Z,964
2016-04-23T04:56:36.808Z,1008
2016-04-23T04:57:36.763Z,1036
2016-04-23T04:58:36.751Z,1052
2016-04-23T04:59:36.737Z,1064
2016-04-23T05:00:36.724Z,1076
2016-04-23T05:01:36.712Z,1104
2016-04-23T05:02:36.699Z,1148
2016-04-23T05:03:36.671Z,1216
2016-04-23T05:04:36.657Z,1300
2016-04-23T05:05:36.645Z,1408
2016-04-23T05:06:36.631Z,1516
2016-04-23T05:07:36.619Z,1624
2016-04-23T05:08:36.589Z,1700
2016-04-23T05:09:36.576Z,1736
2016-04-23T05:10:36.564Z,1740
2016-04-23T05:11:36.567Z,1724
2016-04-23T05:12:36.538Z,1720
2016-04-23T05:13:36.509Z,1748
2016-04-23T05:14:36.481Z,1824
2016-04-23T05:15:36.484Z,1948
2016-04-23T05:16:36.486Z,2076
2016-04-23T05:17:36.473Z,2172
2016-04-23T05:18:36.430Z,2244
2016-04-23T05:19:36.417Z,2296
2016-04-23T05:20:36.419Z,2364
2016-04-23T05:21:36.391Z,2424
2016-04-23T05:22:36.393Z,2464
2016-04-23T05:23:36.208Z,2452
2016-04-23T05:24:36.382Z,2404
2016-04-23T05:25:36.354Z,2336
2016-04-23T05:26:36.326Z,2300
2016-04-23T05:27:36.297Z,2308
2016-04-23T05:28:36.113Z,2372
2016-04-23T05:29:36.287Z,2472
2016-04-23T05:30:36.243Z,2604
2016-04-23T05:31:36.245Z,2720
2016-04-23T05:32:36.263Z,2800
2016-04-23T05:33:36.204Z,2824
2016-04-23T05:34:36.207Z,2800
2016-04-23T05:35:36.178Z,2740
2016-04-23T05:36:36.165Z,2660
2016-04-23T05:37:36.137Z,2564
2016-04-23T05:38:36.358Z,2456
2016-04-23T05:39:36.111Z,2340
2016-04-23T05:40:36.114Z,2236
2016-04-23T05:41:36.101Z,2180
2016-04-23T05:42:36.103Z,2188
2016-04-23T05:43:36.059Z,2216
2016-04-23T05:44:36.046Z,2220
2016-04-23T05:45:36.017Z,2184
2016-04-23T05:46:36.051Z,2148
2016-04-23T05:47:35.991Z,2152
2016-04-23T05:48:35.979Z,2252
2016-04-23T05:49:35.966Z,2428
2016-04-23T05:50:35.984Z,2644
2016-04-23T05:51:35.925Z,2848
2016-04-23T05:52:35.927Z,3020
2016-04-23T05:53:35.899Z,3172
2016-04-23T05:54:35.135Z,3316
2016-04-23T05:55:35.872Z,3468
2016-04-23T05:56:35.875Z,3628
2016-04-23T05:57:35.846Z,3756
2016-04-23T05:58:35.677Z,3832
2016-04-23T05:59:35.805Z,3852
2016-04-23T06:00:35.808Z,3888
2016-04-23T06:01:35.795Z,3960
2016-04-23T06:02:35.766Z,4048
2016-04-23T06:03:35.768Z,4068
2016-04-23T06:04:35.741Z,4016
2016-04-23T06:05:35.727Z,3932
2016-04-23T06:06:35.715Z,3788
2016-04-23T06:07:35.702Z,3636
2016-04-23T06:08:35.673Z,3592
2016-04-23T06:09:35.645Z,3632
2016-04-23T06:10:35.647Z,3744
2016-04-23T06:11:35.634Z,3904
2016-04-23T06:12:35.621Z,4136
2016-04-23T06:13:35.811Z,4316
2016-04-23T06:14:35.580Z,4460
2016-04-23T06:15:35.567Z,4648
2016-04-23T06:16:35.570Z,4752
2016-04-23T06:17:35.541Z,4708
2016-04-23T06:18:35.544Z,4556
2016-04-23T06:19:35.530Z,4292
2016-04-23T06:20:35.503Z,4068
2016-04-23T06:21:35.334Z,3948
2016-04-23T06:22:35.492Z,3920
2016-04-23T06:23:35.480Z,3964
2016-04-23T06:24:35.435Z,3984
2016-04-23T06:25:35.438Z,4024
2016-04-23T06:26:35.424Z,4140
2016-04-23T06:27:35.396Z,4236
2016-04-23T06:28:35.383Z,4312
2016-04-23T06:29:35.371Z,4436
2016-04-23T06:30:35.357Z,4648
2016-04-23T06:31:35.344Z,4792
2016-04-23T06:32:35.347Z,5092
2016-04-23T06:33:35.302Z,5284
2016-04-23T06:34:35.321Z,5432
2016-04-23T06:35:35.307Z,5660
2016-04-23T06:36:35.265Z,5940
2016-04-23T06:37:35.252Z,6496
2016-04-23T06:38:35.254Z,7180
2016-04-23T06:39:35.226Z,7672
2016-04-23T06:40:35.212Z,7836
2016-04-23T06:41:35.199Z,7628
2016-04-23T06:42:35.295Z,7200
2016-04-23T06:43:35.189Z,7020
2016-04-23T06:44:35.176Z,6880
2016-04-23T06:45:35.164Z,6876
2016-04-23T06:46:35.134Z,6924
2016-04-23T06:47:35.122Z,6860
2016-04-23T06:48:34.937Z,6840
2016-04-23T06:49:35.095Z,6812
2016-04-23T06:50:35.083Z,6812
2016-04-23T06:51:35.069Z,6776
2016-04-23T06:52:35.042Z,6776
2016-04-23T06:53:35.029Z,6896
2016-04-23T06:54:35.016Z,6976
2016-04-23T06:55:35.034Z,7088
2016-04-23T06:56:34.989Z,7172
2016-04-23T06:57:34.977Z,7456
2016-04-23T06:58:34.980Z,7460
2016-04-23T06:59:34.951Z,7724
2016-04-23T07:00:34.938Z,8168
2016-04-23T07:01:34.941Z,8676
2016-04-23T07:02:34.913Z,9036
2016-04-23T07:03:34.899Z,9156
2016-04-23T07:04:34.902Z,9128
2016-04-23T07:05:34.873Z,8884
2016-04-23T07:06:34.860Z,8668
2016-04-23T07:07:34.847Z,8568
2016-04-23T07:08:34.835Z,8520
2016-04-23T07:09:34.807Z,8456
2016-04-23T07:10:34.824Z,8468
2016-04-23T07:11:34.796Z,8304
2016-04-23T07:12:34.782Z,8152
2016-04-23T07:13:34.770Z,7960
2016-04-23T07:14:34.773Z,7896
2016-04-23T07:15:34.759Z,7680
2016-04-23T07:16:34.747Z,7172
2016-04-23T07:17:34.734Z,7444
2016-04-23T07:18:34.549Z,7164
2016-04-23T07:19:34.692Z,6532
2016-04-23T07:20:34.664Z,6096
2016-04-23T07:21:34.666Z,5908
2016-04-23T07:22:34.653Z,5624
2016-04-23T07:23:34.641Z,5424
2016-04-23T07:24:34.628Z,5248
2016-04-23T07:25:34.614Z,5024
2016-04-23T07:26:34.586Z,4940
2016-04-23T07:27:34.588Z,5068
2016-04-23T07:28:34.575Z,5328
2016-04-23T07:29:34.563Z,5688
2016-04-23T07:30:34.566Z,6080
2016-04-23T07:31:34.552Z,6176
2016-04-23T07:32:34.508Z,6160
2016-04-23T07:33:34.511Z,6124
2016-04-23T07:34:34.701Z,5796
2016-04-23T07:35:34.469Z,5596
2016-04-23T07:36:34.457Z,5308
2016-04-23T07:37:34.460Z,4296
2016-04-23T07:38:34.431Z,4512
2016-04-23T07:39:34.418Z,4860
2016-04-23T07:40:34.404Z,4920
2016-04-23T07:41:34.424Z,4956
2016-04-23T07:42:34.455Z,5060
2016-04-23T07:43:34.486Z,5396
2016-04-23T07:44:34.518Z,5376
2016-04-23T07:45:34.564Z,5520
2016-04-23T07:46:34.573Z,6700
2016-04-23T07:47:34.577Z,8108
2016-04-23T07:48:34.596Z,9524
2016-04-23T07:49:34.568Z,10628
2016-04-23T07:50:34.571Z,11432
2016-04-23T07:51:34.566Z,11776
2016-04-23T07:52:34.559Z,11924
2016-04-23T07:53:34.552Z,12244
2016-04-23T07:54:34.560Z,12496
2016-04-23T07:55:34.537Z,12352
2016-04-23T07:56:34.543Z,12052
2016-04-23T07:57:34.517Z,11360
2016-04-23T07:58:34.506Z,11476
2016-04-23T07:59:34.494Z,11924
2016-04-23T08:00:34.484Z,11504
2016-04-23T08:01:34.471Z,11356
2016-04-23T08:02:34.459Z,11504
2016-04-23T08:03:34.464Z,10916
2016-04-23T08:04:34.435Z,10756
2016-04-23T08:05:34.424Z,11176
2016-04-23T08:06:34.535Z,12064
2016-04-23T08:07:34.398Z,11640
2016-04-23T08:08:34.386Z,11612
2016-04-23T08:09:34.372Z,11884
2016-04-23T08:10:34.376Z,12552
2016-04-23T08:11:34.488Z,13856
2016-04-23T08:12:34.366Z,15116
2016-04-23T08:13:34.525Z,16576
2016-04-23T08:14:34.309Z,12608
2016-04-23T08:15:34.311Z,10568
2016-04-23T08:16:34.298Z,11488
2016-04-23T08:17:34.285Z,12104
2016-04-23T08:18:34.289Z,12904
2016-04-23T08:19:34.260Z,21280
2016-04-23T08:20:34.262Z,13332
2016-04-23T08:21:34.249Z,19456
2016-04-23T08:22:34.236Z,12204
2016-04-23T08:23:34.208Z,12640
2016-04-23T08:24:34.210Z,39392
2016-04-23T08:25:34.198Z,39776
2016-04-23T08:26:34.185Z,37792
2016-04-23T08:27:34.172Z,48096
2016-04-23T08:28:34.190Z,40352
2016-04-23T08:29:34.151Z,46848
2016-04-23T08:30:34.137Z,40416
2016-04-23T08:31:34.126Z,47264
2016-04-23T08:32:34.128Z,39232
2016-04-23T08:33:34.146Z,36608
2016-04-23T08:34:34.117Z,49600
2016-04-23T08:35:34.120Z,57984
2016-04-23T08:36:34.107Z,26016
2016-04-23T08:37:34.125Z,11640
2016-04-23T08:38:33.926Z,11000
2016-04-23T08:39:34.084Z,11464
2016-04-23T08:40:34.086Z,12576
2016-04-23T08:41:34.074Z,14760
2016-04-23T08:42:34.092Z,26208
2016-04-23T08:43:34.078Z,18304
2016-04-23T08:44:34.067Z,17632
2016-04-23T08:45:34.038Z,15972
2016-04-23T08:46:34.024Z,19104
2016-04-23T08:47:34.043Z,18016
2016-04-23T08:48:34.297Z,15848
2016-04-23T08:49:34.017Z,12340
2016-04-23T08:50:34.035Z,9140
2016-04-23T08:51:34.008Z,9976
2016-04-23T08:52:33.838Z,6652
2016-04-23T08:53:34.027Z,5316
2016-04-23T08:54:33.999Z,4844
2016-04-23T08:55:33.986Z,4140
2016-04-23T08:56:33.958Z,3648
2016-04-23T08:57:33.961Z,3472
2016-04-23T08:58:33.994Z,3452
2016-04-23T08:59:33.951Z,3392
2016-04-23T09:00:33.953Z,3368
2016-04-23T09:01:33.924Z,3348
2016-04-23T09:02:33.927Z,3408
2016-04-23T09:03:33.914Z,3444
2016-04-23T09:04:33.901Z,3404
2016-04-23T09:05:33.888Z,3416
2016-04-23T09:06:33.891Z,3516
2016-04-23T09:07:33.862Z,3688
2016-04-23T09:08:33.850Z,3796
2016-04-23T09:09:33.852Z,3868
2016-04-23T09:10:33.839Z,4028
2016-04-23T09:11:33.826Z,4244
2016-04-23T09:12:33.814Z,4532
2016-04-23T09:13:33.816Z,4980
2016-04-23T09:14:33.819Z,5264
2016-04-23T09:15:33.775Z,5644
2016-04-23T09:16:33.761Z,6340
2016-04-23T09:17:33.764Z,7264
2016-04-23T09:18:33.752Z,8600
2016-04-23T09:19:33.723Z,9880
2016-04-23T09:20:33.725Z,11456
2016-04-23T09:21:33.728Z,13384
2016-04-23T09:22:32.965Z,15132
2016-04-23T09:23:33.686Z,17024
2016-04-23T09:24:33.752Z,20288
2016-04-23T09:25:33.661Z,20128
2016-04-23T09:26:33.649Z,21024
2016-04-23T09:27:33.713Z,17696
2016-04-23T09:28:33.637Z,12556
2016-04-23T09:29:34.047Z,10296
2016-04-23T09:30:33.612Z,8988
2016-04-23T09:31:33.583Z,8296
2016-04-23T09:32:33.571Z,7676
2016-04-23T09:33:33.776Z,7148
2016-04-23T09:34:33.998Z,7060
2016-04-23T09:35:33.548Z,7196
2016-04-23T09:36:33.534Z,7404
2016-04-23T09:37:33.521Z,7808
2016-04-23T09:38:33.523Z,7512
2016-04-23T09:39:33.354Z,7756
2016-04-23T09:40:33.498Z,9100
2016-04-23T09:41:33.439Z,9756
2016-04-23T09:42:34.503Z,10492
2016-04-23T09:43:33.944Z,10372
2016-04-23T09:44:33.431Z,10132
2016-04-23T09:45:33.433Z,9556
2016-04-23T09:46:33.420Z,9568
2016-04-23T09:47:33.423Z,9152
2016-04-23T09:48:33.395Z,8412
2016-04-23T09:49:33.382Z,7436
2016-04-23T09:50:33.384Z,6584
2016-04-23T09:51:33.278Z,5768
2016-04-23T09:52:33.343Z,5308
2016-04-23T09:53:33.346Z,4848
2016-04-23T09:54:33.333Z,3512
2016-04-23T09:55:33.319Z,2580
2016-04-23T09:56:33.307Z,2300
2016-04-23T09:57:33.310Z,2768
2016-04-23T09:58:33.280Z,3580
2016-04-23T09:59:33.268Z,4336
2016-04-23T10:00:33.271Z,5008
2016-04-23T10:01:33.243Z,5460
2016-04-23T10:02:32.996Z,6024
2016-04-23T10:03:33.232Z,6508
2016-04-23T10:04:33.218Z,6596
2016-04-23T10:05:33.878Z,6720
2016-04-23T10:06:33.552Z,7104
2016-04-23T10:07:33.180Z,7644
2016-04-23T10:08:33.542Z,8120
2016-04-23T10:09:33.154Z,8480
2016-04-23T10:10:33.157Z,8800
2016-04-23T10:11:33.519Z,8980
2016-04-23T10:12:33.115Z,9472
2016-04-23T10:13:33.306Z,10044
2016-04-23T10:14:33.089Z,10800
2016-04-23T10:15:33.295Z,11712
2016-04-23T10:16:34.876Z,12908
2016-04-23T10:17:34.128Z,14580
2016-04-23T10:18:33.022Z,17088
2016-04-23T10:19:33.603Z,37376
2016-04-23T10:20:32.872Z,20288
2016-04-23T10:21:33.014Z,21600
2016-04-23T10:22:32.844Z,23648
2016-04-23T10:23:32.976Z,30752
2016-04-23T10:24:32.964Z,29376
2016-04-23T10:25:32.950Z,39200
2016-04-23T10:26:32.938Z,75904
2016-04-23T10:27:32.924Z,80096
2016-04-23T10:28:32.927Z,96896
2016-04-23T10:29:32.899Z,99424
2016-04-23T10:30:32.901Z,101024
2016-04-23T10:31:32.888Z,100192
2016-04-23T10:32:32.875Z,99744
2016-04-23T10:33:32.925Z,47936
2016-04-23T10:34:32.740Z,78592
2016-04-23T10:35:32.883Z,89248
2016-04-23T10:36:32.854Z,87968
2016-04-23T10:37:32.857Z,84480
2016-04-23T10:38:32.845Z,78944
2016-04-23T10:39:32.847Z,64704
2016-04-23T10:40:32.850Z,77728
2016-04-23T10:41:32.837Z,88000
2016-04-23T10:42:32.856Z,95232
2016-04-23T10:43:32.842Z,99872
2016-04-23T10:44:32.845Z,102752
2016-04-23T10:45:32.832Z,103904
2016-04-23T10:46:32.835Z,103424
2016-04-23T10:47:32.837Z,98784
2016-04-23T10:48:32.840Z,24800
2016-04-23T10:49:32.687Z,14832
2016-04-23T10:50:32.831Z,12324
2016-04-23T10:51:32.817Z,10808
2016-04-23T10:52:32.820Z,9252
2016-04-23T10:53:32.822Z,8048
2016-04-23T10:54:32.842Z,6952
2016-04-23T10:55:32.828Z,6152
2016-04-23T10:56:32.830Z,5564
2016-04-23T10:57:33.036Z,5324
2016-04-23T10:58:32.820Z,5096
2016-04-23T10:59:32.823Z,4716
2016-04-23T11:00:32.810Z,4440
2016-04-23T11:01:32.813Z,4416
2016-04-23T11:02:32.799Z,4216
2016-04-23T11:03:32.802Z,4004
2016-04-23T11:04:32.790Z,3964
2016-04-23T11:05:32.996Z,3968
2016-04-23T11:06:32.780Z,3956
2016-04-23T11:07:32.782Z,3940
2016-04-23T11:08:32.785Z,4052
2016-04-23T11:09:32.771Z,4268
2016-04-23T11:10:32.790Z,4712
2016-04-23T11:11:32.793Z,5364
2016-04-23T11:12:32.749Z,6004
2016-04-23T11:13:32.783Z,6364
2016-04-23T11:14:32.737Z,6980
2016-04-23T11:15:32.725Z,7900
2016-04-23T11:16:32.712Z,8924
2016-04-23T11:17:32.715Z,10424
2016-04-23T11:18:32.703Z,12332
2016-04-23T11:19:32.659Z,13996
2016-04-23T11:20:32.583Z,15772
2016-04-23T11:21:32.679Z,18176
2016-04-23T11:22:32.666Z,19392
2016-04-23T11:23:32.653Z,21056
2016-04-23T11:24:32.656Z,21792
2016-04-23T11:25:32.642Z,81344
2016-04-23T11:26:32.614Z,90080
2016-04-23T11:27:32.617Z,87360
2016-04-23T11:28:32.620Z,93728
2016-04-23T11:29:32.607Z,98144
2016-04-23T11:30:32.594Z,99456
2016-04-23T11:31:32.597Z,105536
2016-04-23T11:32:32.427Z,97760
2016-04-23T11:33:32.586Z,21952
2016-04-23T11:34:33.449Z,25312
2016-04-23T11:35:32.905Z,18496
2016-04-23T11:36:32.782Z,15796
2016-04-23T11:37:32.566Z,13124
2016-04-23T11:38:32.569Z,11408
2016-04-23T11:39:32.555Z,9640
2016-04-23T11:40:32.558Z,7220
2016-04-23T11:41:32.560Z,5620
2016-04-23T11:42:32.548Z,4476
2016-04-23T11:43:32.551Z,3708
2016-04-23T11:44:32.741Z,3216
2016-04-23T11:45:32.541Z,2916
2016-04-23T11:46:32.559Z,2800
2016-04-23T11:47:32.530Z,2936
2016-04-23T11:48:32.534Z,3436
2016-04-23T11:49:32.223Z,4196
2016-04-23T11:50:34.242Z,5316
2016-04-23T11:51:32.495Z,6492
2016-04-23T11:52:32.513Z,8776
2016-04-23T11:53:32.500Z,10356
2016-04-23T11:54:32.486Z,11244
2016-04-23T11:55:32.473Z,12372
2016-04-23T11:56:32.476Z,11624
2016-04-23T11:57:32.464Z,11776
2016-04-23T11:58:32.450Z,11936
2016-04-23T11:59:32.656Z,12436
2016-04-23T12:00:32.456Z,12796
2016-04-23T12:01:32.428Z,13380
2016-04-23T12:02:32.430Z,14168
2016-04-23T12:03:32.449Z,16212
2016-04-23T12:04:33.185Z,17824
2016-04-23T12:05:33.657Z,21792
2016-04-23T12:06:32.394Z,27936
2016-04-23T12:07:32.381Z,58528
2016-04-23T12:08:32.368Z,23328
2016-04-23T12:09:32.355Z,20384
2016-04-23T12:10:32.374Z,17760
2016-04-23T12:11:32.376Z,15352
2016-04-23T12:12:32.348Z,13684
2016-04-23T12:13:32.553Z,12020
2016-04-23T12:14:32.353Z,10480
2016-04-23T12:15:32.309Z,9288
2016-04-23T12:16:32.312Z,8656
2016-04-23T12:17:32.314Z,8216
2016-04-23T12:18:32.301Z,8160
2016-04-23T12:19:32.287Z,8888
2016-04-23T12:20:32.291Z,9960
2016-04-23T12:21:32.262Z,12796
2016-04-23T12:22:32.250Z,15892
2016-04-23T12:23:32.252Z,19328
2016-04-23T12:24:32.239Z,91264
2016-04-23T12:25:32.226Z,34080
2016-04-23T12:26:32.229Z,37600
2016-04-23T12:27:32.201Z,88864
2016-04-23T12:28:32.203Z,40160
2016-04-23T12:29:32.236Z,26880
2016-04-23T12:30:32.224Z,109568
2016-04-23T12:31:32.180Z,98848
2016-04-23T12:32:32.183Z,93728
2016-04-23T12:33:32.170Z,91232
2016-04-23T12:34:32.157Z,93888
2016-04-23T12:35:32.144Z,64192
2016-04-23T12:36:32.163Z,94560
2016-04-23T12:37:32.149Z,95520
2016-04-23T12:38:32.152Z,69920
2016-04-23T12:39:32.138Z,72256
2016-04-23T12:40:32.141Z,27904
2016-04-23T12:41:32.144Z,38112
2016-04-23T12:42:32.147Z,17152
2016-04-23T12:43:32.149Z,10808
2016-04-23T12:44:32.137Z,7580
2016-04-23T12:45:32.140Z,5568
2016-04-23T12:46:32.143Z,4384
2016-04-23T12:47:32.129Z,3796
2016-04-23T12:48:32.116Z,3576
2016-04-23T12:49:32.118Z,3484
2016-04-23T12:50:32.090Z,3492
2016-04-23T12:51:32.718Z,3600
2016-04-23T12:52:32.127Z,3756
2016-04-23T12:53:32.114Z,4072
2016-04-23T12:54:32.101Z,4700
2016-04-23T12:55:31.932Z,5708
2016-04-23T12:56:32.091Z,6796
2016-04-23T12:57:32.094Z,9048
2016-04-23T12:58:32.111Z,13032
2016-04-23T12:59:32.083Z,81984
2016-04-23T13:00:32.070Z,24512
2016-04-23T13:01:31.933Z,19456
2016-04-23T13:02:32.075Z,15120
2016-04-23T13:03:32.047Z,12216
2016-04-23T13:04:32.049Z,11320
2016-04-23T13:05:33.490Z,10824
2016-04-23T13:06:32.055Z,10240
2016-04-23T13:07:32.039Z,9848
2016-04-23T13:08:32.010Z,9752
2016-04-23T13:09:32.013Z,10008
2016-04-23T13:10:32.047Z,10600
2016-04-23T13:11:32.002Z,11396
2016-04-23T13:12:31.974Z,12800
2016-04-23T13:13:31.227Z,13912
2016-04-23T13:14:31.964Z,22304
2016-04-23T13:15:31.983Z,109184
2016-04-23T13:16:31.953Z,105504
2016-04-23T13:17:31.955Z,95520
2016-04-23T13:18:31.943Z,18304
2016-04-23T13:19:31.930Z,16928
2016-04-23T13:20:31.933Z,15716
2016-04-23T13:21:32.920Z,13968
2016-04-23T13:22:31.599Z,12044
2016-04-23T13:23:32.009Z,10400
2016-04-23T13:24:31.902Z,8724
2016-04-23T13:25:31.920Z,7076
2016-04-23T13:26:31.923Z,6040
2016-04-23T13:27:31.910Z,5576
2016-04-23T13:28:31.898Z,5732
2016-04-23T13:29:31.899Z,6728
2016-04-23T13:30:32.105Z,7620
2016-04-23T13:31:31.905Z,8096
2016-04-23T13:32:32.142Z,10224
2016-04-23T13:33:31.894Z,13616
2016-04-23T13:34:31.851Z,16992
2016-04-23T13:35:31.681Z,27136
2016-04-23T13:36:31.839Z,40256
2016-04-23T13:37:31.859Z,65600